Time;durP1;ratioP1;P1;durP2;ratioP2;P2;SDS_P1;SDS_P2;PMS_P1;PMS_P2;Temp;Humidity;BMP_temperature;BMP_pressure;BME280_temperature;BME280_humidity;BME280_pressure;Samples;Min_cycle;Max_cycle;Signal;HPM_P1;HPM_P2
2022/03/20 00:01:02;;;;;;;22.50;12.97;;;10.90;34.90;;;;;;5114955;27;20883;-84
2022/03/20 00:03:31;;;;;;;20.93;11.47;;;10.90;35.30;;;;;;5134694;27;20564;-84
2022/03/20 00:05:59;;;;;;;23.83;12.00;;;11.00;35.00;;;;;;5115790;27;20468;-83
2022/03/20 00:08:26;;;;;;;22.70;12.00;;;10.90;34.50;;;;;;5115913;27;20449;-84
2022/03/20 00:10:56;;;;;;;23.87;12.93;;;10.90;35.30;;;;;;5135142;27;20843;-84
2022/03/20 00:13:24;;;;;;;20.67;13.20;;;10.90;35.00;;;;;;5123153;27;20449;-84
2022/03/20 00:15:52;;;;;;;20.80;12.30;;;10.80;35.50;;;;;;5114449;27;20472;-83
2022/03/20 00:18:23;;;;;;;21.33;11.90;;;10.80;35.70;;;;;;5099350;27;20463;-83
2022/03/20 00:20:52;;;;;;;20.93;13.90;;;10.70;33.80;;;;;;5111760;27;20449;-84
2022/03/20 00:23:19;;;;;;;20.50;12.77;;;10.70;34.70;;;;;;5135536;27;20461;-84
2022/03/20 00:25:47;;;;;;;23.00;12.80;;;10.70;35.50;;;;;;5130593;27;20460;-83
2022/03/20 00:28:16;;;;;;;20.70;13.00;;;10.70;35.50;;;;;;5114403;27;20493;-83
2022/03/20 00:30:44;;;;;;;23.70;13.30;;;10.50;34.30;;;;;;5114828;27;20453;-84
2022/03/20 00:33:11;;;;;;;22.33;12.50;;;10.50;34.60;;;;;;5133928;27;20980;-85
2022/03/20 00:35:39;;;;;;;19.60;12.23;;;10.50;35.00;;;;;;5123575;27;20473;-83
2022/03/20 00:38:07;;;;;;;21.30;12.37;;;10.40;34.60;;;;;;5100348;27;20429;-84
2022/03/20 00:40:35;;;;;;;23.10;13.50;;;10.40;35.30;;;;;;5123116;27;20960;-83
2022/03/20 00:43:04;;;;;;;19.10;11.97;;;10.30;33.80;;;;;;5123604;27;20911;-83
2022/03/20 00:45:31;;;;;;;16.03;12.40;;;10.20;34.00;;;;;;5100356;27;20889;-83
2022/03/20 00:47:58;;;;;;;23.90;14.37;;;10.20;33.90;;;;;;5097312;27;20445;-83
2022/03/20 00:50:26;;;;;;;23.43;12.97;;;10.20;34.60;;;;;;5105294;27;20470;-83
2022/03/20 00:52:54;;;;;;;25.23;13.07;;;10.10;33.90;;;;;;5082218;27;21094;-84
2022/03/20 00:55:21;;;;;;;23.90;12.27;;;9.90;35.10;;;;;;5098606;27;20465;-83
2022/03/20 00:57:48;;;;;;;25.77;13.20;;;9.90;36.00;;;;;;5083412;27;20525;-84
2022/03/20 01:00:16;;;;;;;22.80;13.03;;;10.00;35.10;;;;;;5113762;27;20857;-84
2022/03/20 01:02:44;;;;;;;23.10;13.67;;;10.10;35.00;;;;;;5133290;27;20473;-84
2022/03/20 01:05:12;;;;;;;21.43;13.37;;;10.00;34.00;;;;;;5115724;27;20460;-84
2022/03/20 01:07:39;;;;;;;26.40;14.13;;;10.00;34.80;;;;;;5096554;27;20448;-84
2022/03/20 01:10:08;;;;;;;21.90;11.83;;;9.90;34.90;;;;;;5098039;27;20449;-85
2022/03/20 01:12:37;;;;;;;22.10;13.00;;;9.50;35.10;;;;;;5098182;27;21105;-84
2022/03/20 01:15:06;;;;;;;41.97;13.30;;;9.50;35.90;;;;;;5132155;27;21764;-84
2022/03/20 01:17:34;;;;;;;22.37;12.93;;;9.50;36.60;;;;;;5117483;27;20450;-83
2022/03/20 01:20:00;;;;;;;21.90;12.47;;;9.50;36.50;;;;;;5132476;27;20445;-83
2022/03/20 01:22:27;;;;;;;22.77;11.73;;;9.60;37.90;;;;;;5130162;27;20474;-84
2022/03/20 01:24:54;;;;;;;19.70;12.63;;;9.70;37.90;;;;;;5113263;27;20480;-84
2022/03/20 01:27:23;;;;;;;26.23;15.07;;;9.80;38.00;;;;;;5098179;27;20441;-84
2022/03/20 01:29:49;;;;;;;28.47;16.33;;;10.00;37.60;;;;;;5120862;27;20454;-83
2022/03/20 01:32:18;;;;;;;27.00;12.97;;;10.00;36.80;;;;;;5112978;27;20547;-83
2022/03/20 01:34:47;;;;;;;24.50;13.77;;;10.10;37.30;;;;;;5096175;27;20462;-83
2022/03/20 01:37:14;;;;;;;23.60;13.33;;;10.10;37.00;;;;;;5120040;27;20446;-84
2022/03/20 01:39:41;;;;;;;27.70;12.87;;;10.00;35.80;;;;;;5127965;27;20498;-83
2022/03/20 01:42:08;;;;;;;22.23;12.57;;;9.70;35.80;;;;;;5129401;27;21034;-84
2022/03/20 01:44:37;;;;;;;20.87;13.17;;;9.50;36.60;;;;;;5110886;27;20445;-83
2022/03/20 01:47:06;;;;;;;22.53;11.87;;;9.40;37.20;;;;;;5130004;27;20450;-83
2022/03/20 01:49:33;;;;;;;23.37;13.27;;;9.40;37.10;;;;;;5129575;27;20461;-84
2022/03/20 01:52:13;;;;;;;19.90;12.70;;;9.40;37.00;;;;;;5129304;27;20954;-84
2022/03/20 01:54:41;;;;;;;17.53;12.37;;;9.40;37.90;;;;;;5128027;27;20445;-83
2022/03/20 01:57:09;;;;;;;28.90;14.70;;;9.50;38.50;;;;;;5130733;27;20444;-84
2022/03/20 01:59:37;;;;;;;28.50;15.13;;;9.60;38.00;;;;;;5129091;27;20482;-80
2022/03/20 02:02:06;;;;;;;25.20;13.93;;;9.70;38.60;;;;;;5097723;27;21922;-84
2022/03/20 02:04:36;;;;;;;25.30;14.00;;;9.80;38.40;;;;;;5111850;27;20464;-84
2022/03/20 02:07:04;;;;;;;25.13;14.53;;;9.90;38.80;;;;;;5094753;27;20982;-84
2022/03/20 02:09:32;;;;;;;27.57;14.63;;;9.90;38.00;;;;;;5096177;27;20441;-84
2022/03/20 02:12:00;;;;;;;24.13;14.47;;;10.00;37.80;;;;;;5117245;27;20446;-84
2022/03/20 02:14:28;;;;;;;25.60;15.00;;;10.00;36.60;;;;;;5116476;27;21043;-85
2022/03/20 02:16:57;;;;;;;26.43;14.40;;;10.00;36.60;;;;;;5097885;27;20458;-84
2022/03/20 02:19:25;;;;;;;23.00;14.07;;;10.00;37.70;;;;;;5113613;27;20441;-84
2022/03/20 02:21:54;;;;;;;24.90;14.73;;;9.90;38.20;;;;;;5133326;27;20448;-84
2022/03/20 02:24:33;;;;;;;25.17;14.73;;;9.90;38.50;;;;;;5133380;27;20854;-84
2022/03/20 02:27:05;;;;;;;27.40;15.13;;;9.90;38.90;;;;;;5135285;27;20818;-83
2022/03/20 02:29:32;;;;;;;26.27;15.63;;;9.90;37.90;;;;;;5124343;27;20501;-84
2022/03/20 02:32:01;;;;;;;24.23;15.40;;;9.70;37.50;;;;;;5132675;27;20473;-83
2022/03/20 02:34:30;;;;;;;25.50;14.77;;;9.60;38.10;;;;;;5115564;27;20537;-83
2022/03/20 02:37:00;;;;;;;25.73;15.00;;;9.60;39.00;;;;;;5104170;27;20478;-83
2022/03/20 02:39:28;;;;;;;30.47;15.47;;;9.40;38.60;;;;;;5133478;27;20445;-84
2022/03/20 02:41:56;;;;;;;28.73;15.23;;;9.20;38.80;;;;;;5118148;27;20475;-83
2022/03/20 02:44:49;;;;;;;29.40;16.10;;;8.90;39.80;;;;;;5117681;27;20466;-82
2022/03/20 02:47:19;;;;;;;28.13;14.40;;;9.10;40.20;;;;;;5131534;27;20452;-83
2022/03/20 02:49:48;;;;;;;28.80;16.20;;;9.40;40.70;;;;;;5098983;27;20814;-83
2022/03/20 02:52:17;;;;;;;23.63;14.33;;;9.50;40.20;;;;;;5119392;27;20449;-84
2022/03/20 02:54:44;;;;;;;30.03;16.30;;;9.60;40.10;;;;;;5098820;27;20859;-83
2022/03/20 02:57:11;;;;;;;34.47;16.90;;;9.70;40.30;;;;;;5136364;27;20981;-83
2022/03/20 02:59:39;;;;;;;29.07;15.73;;;9.70;40.00;;;;;;5083634;27;20457;-83
2022/03/20 03:02:09;;;;;;;30.13;16.50;;;9.70;39.60;;;;;;5116826;27;20468;-83
2022/03/20 03:04:37;;;;;;;33.30;17.70;;;9.70;39.90;;;;;;5113791;27;20558;-80
2022/03/20 03:07:05;;;;;;;30.33;16.20;;;9.70;40.00;;;;;;5134357;27;20510;-83
2022/03/20 03:12:18;;;;;;;32.93;17.10;;;9.80;41.00;;;;;;5132459;27;20478;-84
2022/03/20 03:17:29;;;;;;;27.13;15.43;;;9.80;41.40;;;;;;5112872;27;20441;-84
2022/03/20 03:19:58;;;;;;;32.40;18.53;;;9.80;41.70;;;;;;5132537;27;20453;-85
2022/03/20 03:22:27;;;;;;;30.47;17.77;;;9.80;42.20;;;;;;5133514;27;20469;-84
2022/03/20 03:24:55;;;;;;;30.07;16.50;;;9.80;41.90;;;;;;5131123;27;20536;-84
2022/03/20 03:27:22;;;;;;;35.80;19.03;;;9.70;42.00;;;;;;5115805;27;20503;-84
2022/03/20 03:29:49;;;;;;;31.50;17.47;;;9.70;41.40;;;;;;5121993;27;20446;-83
2022/03/20 03:32:16;;;;;;;33.13;17.90;;;9.70;40.50;;;;;;5133302;27;20445;-84
2022/03/20 03:37:32;;;;;;;31.30;18.83;;;9.60;40.60;;;;;;5118623;27;21038;-83
2022/03/20 03:40:00;;;;;;;34.40;18.93;;;9.50;40.80;;;;;;5132521;27;20446;-83
2022/03/20 03:42:28;;;;;;;33.67;18.97;;;9.50;41.10;;;;;;5116374;27;20457;-83
2022/03/20 03:44:55;;;;;;;32.43;18.20;;;9.60;41.00;;;;;;5096706;27;20493;-84
2022/03/20 03:47:24;;;;;;;35.40;19.57;;;9.60;41.40;;;;;;5116677;27;20450;-83
2022/03/20 03:49:51;;;;;;;28.83;17.33;;;9.60;41.70;;;;;;5121927;27;20524;-83
2022/03/20 03:52:19;;;;;;;33.93;18.80;;;9.60;41.40;;;;;;5104627;27;20960;-84
2022/03/20 03:54:46;;;;;;;33.60;17.80;;;9.50;40.50;;;;;;5097291;27;20494;-84
2022/03/20 03:57:15;;;;;;;34.97;18.10;;;9.50;40.40;;;;;;5132688;27;20445;-84
2022/03/20 03:59:42;;;;;;;34.67;20.10;;;9.50;40.90;;;;;;5129225;27;20438;-84
2022/03/20 04:02:09;;;;;;;37.67;19.07;;;9.50;40.80;;;;;;5094792;27;1033793;-84
2022/03/20 04:04:36;;;;;;;36.17;19.03;;;9.50;41.00;;;;;;5114827;27;20228;-83
2022/03/20 04:07:04;;;;;;;37.77;18.90;;;9.50;41.00;;;;;;5114798;27;20446;-84
2022/03/20 04:09:31;;;;;;;27.83;17.60;;;9.40;41.10;;;;;;5113349;27;20453;-83
2022/03/20 04:11:59;;;;;;;33.30;16.77;;;9.50;41.30;;;;;;5094921;27;20466;-84
2022/03/20 04:14:29;;;;;;;33.40;18.40;;;9.40;42.20;;;;;;5132088;27;20459;-84
2022/03/20 04:16:57;;;;;;;35.03;19.67;;;9.40;41.50;;;;;;5104448;27;20446;-83
2022/03/20 04:19:25;;;;;;;34.03;18.87;;;9.30;41.90;;;;;;5114757;27;20449;-84
2022/03/20 04:21:52;;;;;;;32.70;18.77;;;9.30;42.20;;;;;;5098442;27;20443;-84
2022/03/20 04:24:19;;;;;;;33.30;18.40;;;9.30;42.30;;;;;;5118554;27;21021;-83
2022/03/20 04:26:46;;;;;;;33.20;18.43;;;9.30;42.20;;;;;;5113981;27;20469;-83
2022/03/20 04:29:13;;;;;;;40.93;18.00;;;9.30;42.40;;;;;;5100336;27;20445;-83
2022/03/20 04:31:41;;;;;;;38.17;20.40;;;9.30;42.10;;;;;;5115963;27;20438;-85
2022/03/20 04:34:10;;;;;;;34.37;19.30;;;9.30;42.50;;;;;;5105988;27;20886;-84
2022/03/20 04:36:37;;;;;;;33.17;18.73;;;9.30;41.90;;;;;;5113403;27;20471;-82
2022/03/20 04:39:03;;;;;;;32.13;17.67;;;9.30;42.10;;;;;;5113669;27;20450;-84
2022/03/20 04:41:32;;;;;;;31.90;17.40;;;9.30;41.80;;;;;;5114580;27;20517;-84
2022/03/20 04:44:00;;;;;;;33.07;18.27;;;9.40;42.20;;;;;;5112786;27;20571;-84
2022/03/20 04:46:27;;;;;;;37.47;17.07;;;9.30;41.70;;;;;;5134150;27;20494;-84
2022/03/20 04:59:54;;;;;;;37.33;19.47;;;8.90;43.40;;;;;;5112406;27;20481;-84
2022/03/20 05:02:21;;;;;;;33.87;18.13;;;8.90;43.60;;;;;;5135645;27;20832;-84
2022/03/20 05:04:50;;;;;;;36.90;18.70;;;8.90;43.90;;;;;;5130847;27;20477;-84
2022/03/20 05:07:17;;;;;;;39.03;20.73;;;9.00;43.70;;;;;;5131822;27;20448;-84
2022/03/20 05:15:14;;;;;;;32.13;18.80;;;9.10;44.20;;;;;;5132387;27;20826;-83
2022/03/20 05:17:41;;;;;;;35.97;19.27;;;9.10;43.90;;;;;;5131898;27;20454;-83
2022/03/20 05:20:11;;;;;;;34.60;18.90;;;9.20;43.80;;;;;;5131776;27;20912;-84
2022/03/20 05:22:39;;;;;;;44.30;21.43;;;9.20;43.30;;;;;;5113248;27;20434;-84
2022/03/20 05:25:09;;;;;;;36.17;19.23;;;9.20;43.50;;;;;;5130009;27;20503;-85
2022/03/20 05:27:36;;;;;;;33.87;18.50;;;9.30;43.40;;;;;;5096904;27;20506;-82
2022/03/20 05:30:05;;;;;;;38.53;19.03;;;9.30;43.40;;;;;;5131647;27;21202;-85
2022/03/20 05:32:32;;;;;;;41.23;19.63;;;9.30;43.30;;;;;;5133621;27;20484;-84
2022/03/20 05:35:00;;;;;;;36.13;19.07;;;9.30;43.40;;;;;;5114073;27;20992;-84
2022/03/20 05:37:29;;;;;;;40.53;20.57;;;9.30;42.90;;;;;;5122046;27;20805;-84
2022/03/20 05:39:56;;;;;;;36.27;18.40;;;9.20;42.70;;;;;;5130679;27;20988;-85
2022/03/20 05:42:23;;;;;;;39.20;20.17;;;9.10;42.40;;;;;;5123324;27;20446;-83
2022/03/20 05:44:51;;;;;;;37.73;19.53;;;9.20;42.90;;;;;;5131546;27;20484;-83
2022/03/20 05:47:18;;;;;;;37.57;20.23;;;9.30;43.50;;;;;;5131709;27;20446;-83
2022/03/20 05:49:46;;;;;;;38.57;19.70;;;9.30;43.80;;;;;;5114833;27;20487;-81
2022/03/20 05:52:13;;;;;;;34.07;18.50;;;9.40;44.00;;;;;;5131746;27;20570;-85
2022/03/20 05:54:41;;;;;;;43.93;21.93;;;9.50;43.80;;;;;;5130109;27;20477;-84
2022/03/20 05:59:55;;;;;;;43.10;20.90;;;9.50;43.30;;;;;;5119073;27;20430;-85
2022/03/20 06:02:23;;;;;;;39.73;20.40;;;9.60;43.50;;;;;;5113700;27;20521;-84
2022/03/20 06:04:51;;;;;;;38.37;21.07;;;9.60;43.40;;;;;;5111105;27;20470;-84
2022/03/20 06:07:18;;;;;;;40.83;21.97;;;9.60;43.20;;;;;;5096717;27;20929;-84
2022/03/20 06:09:46;;;;;;;48.30;20.90;;;9.60;43.30;;;;;;5112534;27;20449;-82
2022/03/20 06:12:13;;;;;;;36.93;22.00;;;9.70;42.50;;;;;;5132762;27;20449;-84
2022/03/20 06:14:40;;;;;;;43.53;22.47;;;9.70;42.20;;;;;;5131652;27;20610;-84
2022/03/20 06:17:09;;;;;;;36.90;21.83;;;9.80;43.20;;;;;;5114339;27;20809;-84
2022/03/20 06:19:37;;;;;;;36.17;20.17;;;9.80;42.50;;;;;;5112097;27;20449;-80
2022/03/20 06:22:05;;;;;;;35.63;20.97;;;9.90;42.70;;;;;;5131925;27;20442;-85
2022/03/20 06:24:33;;;;;;;39.57;21.57;;;9.90;42.60;;;;;;5111672;27;20457;-81
2022/03/20 06:27:03;;;;;;;38.93;19.80;;;9.90;41.80;;;;;;5095780;27;20537;-84
2022/03/20 06:29:30;;;;;;;37.27;21.23;;;10.00;41.10;;;;;;5112097;28;20444;-84
2022/03/20 06:31:57;;;;;;;33.47;18.43;;;9.80;41.70;;;;;;5130241;27;20456;-84
2022/03/20 06:34:24;;;;;;;37.83;22.93;;;9.90;41.80;;;;;;5128127;27;20468;-84
2022/03/20 06:36:55;;;;;;;43.93;22.20;;;10.00;40.90;;;;;;5095313;27;20449;-84
2022/03/20 06:39:22;;;;;;;41.33;21.97;;;10.10;40.30;;;;;;5103063;27;20445;-83
2022/03/20 06:41:49;;;;;;;36.23;19.97;;;10.20;40.80;;;;;;5093159;27;20450;-84
2022/03/20 06:44:18;;;;;;;37.43;20.37;;;10.20;40.10;;;;;;5129089;27;20457;-84
2022/03/20 06:46:45;;;;;;;33.10;21.83;;;10.20;40.70;;;;;;5093060;27;21054;-82
2022/03/20 06:49:12;;;;;;;41.30;21.03;;;10.10;39.80;;;;;;5129369;27;20430;-84
2022/03/20 06:51:40;;;;;;;37.10;20.50;;;10.10;40.40;;;;;;5100216;27;20446;-85
2022/03/20 06:54:07;;;;;;;33.60;19.33;;;10.20;40.60;;;;;;5129285;27;20457;-85
2022/03/20 06:56:34;;;;;;;39.30;20.80;;;10.40;40.40;;;;;;5096662;27;21302;-84
2022/03/20 06:59:01;;;;;;;41.20;20.77;;;10.40;40.00;;;;;;5103517;27;21065;-84
2022/03/20 07:01:30;;;;;;;40.10;20.60;;;10.50;39.70;;;;;;5097430;27;20449;-84
2022/03/20 07:03:57;;;;;;;39.67;20.70;;;10.50;40.00;;;;;;5132789;27;20457;-84
2022/03/20 07:06:26;;;;;;;34.30;19.63;;;10.60;40.00;;;;;;5100506;27;20866;-84
2022/03/20 07:08:59;;;;;;;37.20;22.20;;;10.40;39.30;;;;;;5112125;27;20450;-84
2022/03/20 07:11:32;;;;;;;37.90;21.87;;;10.30;39.60;;;;;;5097837;27;20517;-84
2022/03/20 07:14:01;;;;;;;40.27;21.63;;;10.20;39.20;;;;;;5115680;27;20439;-84
2022/03/20 07:16:33;;;;;;;40.20;21.20;;;10.10;39.80;;;;;;5113266;27;20476;-85
2022/03/20 07:19:01;;;;;;;39.53;20.50;;;10.20;40.10;;;;;;5133365;27;20439;-84
2022/03/20 07:21:32;;;;;;;35.97;19.63;;;10.20;39.40;;;;;;5100194;27;20961;-86
2022/03/20 07:23:59;;;;;;;32.50;19.47;;;9.90;40.80;;;;;;5130022;27;20467;-84
2022/03/20 07:31:57;;;;;;;36.33;20.73;;;10.00;40.40;;;;;;5130662;27;20546;-82
2022/03/20 07:34:25;;;;;;;35.53;19.03;;;10.10;40.20;;;;;;5131078;27;20802;-84
2022/03/20 07:36:51;;;;;;;32.90;21.63;;;10.30;39.70;;;;;;5130811;27;20474;-82
2022/03/20 07:39:18;;;;;;;34.47;19.57;;;10.00;39.20;;;;;;5115153;27;20538;-83
2022/03/20 07:41:45;;;;;;;35.73;18.90;;;10.00;40.00;;;;;;5132056;27;20469;-84
2022/03/20 07:44:12;;;;;;;33.63;18.20;;;10.20;39.60;;;;;;5100693;27;20472;-82
2022/03/20 07:46:40;;;;;;;37.13;19.33;;;10.20;39.40;;;;;;5110624;27;20545;-84
2022/03/20 07:49:09;;;;;;;33.87;19.33;;;10.30;40.30;;;;;;5112933;27;20458;-84
2022/03/20 07:51:37;;;;;;;36.70;20.00;;;10.30;39.50;;;;;;5122750;27;21000;-82
2022/03/20 07:54:04;;;;;;;30.93;18.17;;;10.30;40.00;;;;;;5130047;27;20948;-84
2022/03/20 07:56:34;;;;;;;37.77;18.70;;;10.30;39.30;;;;;;5131216;27;20468;-83
2022/03/20 07:59:05;;;;;;;34.47;19.23;;;10.40;39.50;;;;;;5112971;27;20853;-83
2022/03/20 08:01:33;;;;;;;36.53;18.30;;;10.60;39.70;;;;;;5131605;27;20904;-84
2022/03/20 08:04:00;;;;;;;32.37;20.10;;;10.50;39.20;;;;;;5130802;27;20442;-84
2022/03/20 08:06:29;;;;;;;39.10;19.17;;;10.80;39.70;;;;;;5112524;27;20470;-85
2022/03/20 08:08:59;;;;;;;37.60;19.10;;;10.90;39.20;;;;;;5129248;27;21055;-84
2022/03/20 08:11:27;;;;;;;37.00;18.77;;;11.00;39.20;;;;;;5097178;27;20441;-83
2022/03/20 08:13:54;;;;;;;31.57;19.10;;;10.90;38.90;;;;;;5111459;27;20851;-81
2022/03/20 08:16:22;;;;;;;36.23;19.80;;;10.90;38.90;;;;;;5113290;27;20468;-84
2022/03/20 08:18:49;;;;;;;32.00;18.30;;;11.00;38.90;;;;;;5129716;27;20451;-83
2022/03/20 08:21:16;;;;;;;35.57;18.53;;;11.10;38.70;;;;;;5132480;27;20537;-84
2022/03/20 08:23:45;;;;;;;35.50;18.27;;;11.20;38.80;;;;;;5120779;27;20449;-84
2022/03/20 08:26:12;;;;;;;33.07;18.23;;;11.30;38.30;;;;;;5133359;27;20488;-83
2022/03/20 08:28:41;;;;;;;32.00;18.43;;;11.30;37.90;;;;;;5102844;27;20446;-84
2022/03/20 08:31:09;;;;;;;33.20;18.80;;;11.20;38.10;;;;;;5130791;27;20486;-83
2022/03/20 08:33:36;;;;;;;30.70;17.93;;;11.30;38.60;;;;;;5098231;27;20450;-81
2022/03/20 08:36:05;;;;;;;33.00;17.03;;;11.20;37.60;;;;;;5113474;27;20457;-83
2022/03/20 08:38:32;;;;;;;31.40;18.07;;;11.30;38.00;;;;;;5130627;27;20849;-84
2022/03/20 08:41:01;;;;;;;31.20;18.20;;;11.30;38.20;;;;;;5130314;27;20626;-83
2022/03/20 08:43:27;;;;;;;38.73;19.40;;;11.30;37.70;;;;;;5121013;27;20438;-85
2022/03/20 08:45:54;;;;;;;35.13;19.90;;;11.40;38.40;;;;;;5109584;27;20477;-84
2022/03/20 08:48:21;;;;;;;46.37;23.30;;;11.60;37.70;;;;;;5111899;27;20906;-83
2022/03/20 08:50:49;;;;;;;46.30;22.60;;;11.60;37.80;;;;;;5110233;27;20502;-84
2022/03/20 08:53:18;;;;;;;35.87;21.87;;;11.60;37.40;;;;;;5132469;27;20445;-82
2022/03/20 08:55:46;;;;;;;41.23;23.57;;;11.80;37.30;;;;;;5119079;27;20517;-81
2022/03/20 08:58:15;;;;;;;29.83;18.63;;;11.80;37.30;;;;;;5097127;27;20452;-83
2022/03/20 09:00:43;;;;;;;31.23;18.93;;;11.90;37.60;;;;;;5111697;27;21006;-84
2022/03/20 09:03:11;;;;;;;30.53;17.60;;;12.00;36.60;;;;;;5129622;27;20877;-84
2022/03/20 09:05:38;;;;;;;32.37;19.50;;;12.10;37.50;;;;;;5095933;27;21031;-84
2022/03/20 09:08:05;;;;;;;27.77;17.77;;;12.30;36.80;;;;;;5115831;27;20484;-84
2022/03/20 09:10:32;;;;;;;27.43;17.13;;;12.40;36.90;;;;;;5111551;27;20546;-84
2022/03/20 09:13:00;;;;;;;28.33;16.67;;;12.60;36.50;;;;;;5112530;27;20429;-84
2022/03/20 09:15:30;;;;;;;29.60;17.73;;;12.70;35.70;;;;;;5086615;27;21141;-84
2022/03/20 09:20:43;;;;;;;29.40;18.10;;;13.20;36.00;;;;;;5102669;27;20437;-84
2022/03/20 09:23:12;;;;;;;34.23;17.73;;;13.10;35.60;;;;;;5120378;27;20472;-84
2022/03/20 09:25:39;;;;;;;34.70;20.17;;;13.20;35.50;;;;;;5129040;27;20474;-84
2022/03/20 09:28:08;;;;;;;31.20;18.83;;;13.30;35.30;;;;;;5111366;27;20521;-84
2022/03/20 09:30:39;;;;;;;30.17;17.70;;;13.50;35.70;;;;;;5112601;27;20533;-84
2022/03/20 09:33:06;;;;;;;32.93;19.20;;;13.80;35.00;;;;;;5111595;27;20899;-84
2022/03/20 09:35:34;;;;;;;35.33;18.80;;;14.00;34.80;;;;;;5109670;27;20470;-85
2022/03/20 09:38:03;;;;;;;31.50;18.00;;;14.00;34.50;;;;;;5111510;27;20543;-85
2022/03/20 09:40:31;;;;;;;33.80;19.90;;;14.00;34.80;;;;;;5109811;27;20440;-85
2022/03/20 09:42:58;;;;;;;27.40;16.57;;;14.10;34.90;;;;;;5089364;27;20450;-85
2022/03/20 09:45:25;;;;;;;29.97;18.93;;;14.30;34.50;;;;;;5119133;27;20466;-83
2022/03/20 09:47:54;;;;;;;34.30;19.33;;;14.40;34.30;;;;;;5102381;27;20457;-85
2022/03/20 09:50:22;;;;;;;29.73;17.17;;;14.50;34.20;;;;;;5131352;27;20456;-84
2022/03/20 09:52:49;;;;;;;30.13;18.97;;;14.60;33.60;;;;;;5111973;27;20445;-85
2022/03/20 09:55:16;;;;;;;31.53;18.40;;;14.40;34.70;;;;;;5099610;27;20828;-85
2022/03/20 09:57:43;;;;;;;29.10;15.57;;;14.60;33.60;;;;;;5104870;27;20464;-85
2022/03/20 10:00:14;;;;;;;26.97;18.20;;;14.50;33.70;;;;;;5131795;27;20441;-84
2022/03/20 10:02:42;;;;;;;35.93;18.63;;;14.40;34.00;;;;;;5112857;27;20458;-84
2022/03/20 10:05:11;;;;;;;31.57;17.50;;;14.40;34.90;;;;;;5112517;27;20513;-85
2022/03/20 10:07:43;;;;;;;30.27;19.37;;;14.60;34.40;;;;;;5095437;27;21028;-84
2022/03/20 10:10:16;;;;;;;29.90;18.27;;;15.00;34.00;;;;;;5121258;27;21038;-86
2022/03/20 10:12:45;;;;;;;29.33;17.77;;;15.10;32.70;;;;;;5111801;27;20446;-85
2022/03/20 10:15:28;;;;;;;36.07;19.27;;;15.30;32.70;;;;;;5120511;27;20462;-84
2022/03/20 10:18:14;;;;;;;34.00;17.80;;;15.30;32.50;;;;;;5127374;27;20975;-85
2022/03/20 10:20:44;;;;;;;33.97;19.87;;;15.40;32.60;;;;;;5096922;27;20453;-85
2022/03/20 10:23:31;;;;;;;31.47;19.00;;;15.30;32.70;;;;;;5112535;27;20614;-84
2022/03/20 10:26:04;;;;;;;29.20;18.80;;;15.60;32.50;;;;;;5093433;27;20502;-84
2022/03/20 10:28:39;;;;;;;31.83;19.20;;;16.10;33.20;;;;;;5129781;27;20472;-84
2022/03/20 10:31:08;;;;;;;37.73;20.00;;;16.20;32.00;;;;;;5130037;27;20440;-85
2022/03/20 10:33:38;;;;;;;31.63;18.03;;;16.30;31.60;;;;;;5123686;27;20955;-84
2022/03/20 10:36:14;;;;;;;32.53;19.87;;;16.50;31.50;;;;;;5133306;27;20477;-84
2022/03/20 10:38:43;;;;;;;30.73;18.50;;;16.50;30.70;;;;;;5134551;27;20448;-85
2022/03/20 10:41:17;;;;;;;31.93;17.90;;;16.40;30.70;;;;;;5135484;27;20452;-86
2022/03/20 10:43:45;;;;;;;30.10;18.27;;;16.10;30.90;;;;;;5101619;27;20445;-84
2022/03/20 10:46:18;;;;;;;26.23;17.07;;;16.20;31.80;;;;;;5118609;27;20468;-84
2022/03/20 10:48:48;;;;;;;23.73;16.57;;;16.20;31.50;;;;;;5102340;27;20466;-85
2022/03/20 10:51:26;;;;;;;34.80;18.90;;;16.50;31.50;;;;;;5118525;27;20472;-85
2022/03/20 10:53:54;;;;;;;28.50;17.10;;;16.60;30.70;;;;;;5134679;27;20437;-83
2022/03/20 10:56:22;;;;;;;32.70;18.73;;;16.70;31.60;;;;;;5116390;27;20935;-85
2022/03/20 10:58:49;;;;;;;25.87;16.87;;;16.60;31.10;;;;;;5134578;27;20445;-84
2022/03/20 11:01:17;;;;;;;29.77;18.30;;;16.40;30.90;;;;;;5138292;27;20448;-85
2022/03/20 11:03:46;;;;;;;24.07;16.87;;;16.50;31.10;;;;;;5100864;27;20488;-85
2022/03/20 11:06:15;;;;;;;23.80;16.27;;;16.70;31.30;;;;;;5117864;27;20508;-84
2022/03/20 11:08:43;;;;;;;30.30;16.90;;;17.00;30.80;;;;;;5100114;27;20449;-85
2022/03/20 11:11:11;;;;;;;32.13;19.60;;;17.20;30.30;;;;;;5118835;27;20465;-84
2022/03/20 11:13:40;;;;;;;24.80;17.00;;;17.40;30.40;;;;;;5135116;27;20448;-85
2022/03/20 11:16:10;;;;;;;33.10;18.30;;;17.40;30.10;;;;;;5117470;27;20670;-85
2022/03/20 11:18:40;;;;;;;31.40;17.60;;;17.50;30.00;;;;;;5117499;27;20451;-85
2022/03/20 11:21:08;;;;;;;28.27;17.27;;;17.60;29.80;;;;;;5133331;27;21235;-85
2022/03/20 11:23:37;;;;;;;26.33;17.27;;;17.90;30.10;;;;;;5118557;27;21117;-85
2022/03/20 11:26:07;;;;;;;28.60;17.40;;;17.80;29.50;;;;;;5114154;27;20474;-85
2022/03/20 11:28:42;;;;;;;28.90;17.10;;;17.90;30.60;;;;;;5135260;27;20468;-85
2022/03/20 11:31:10;;;;;;;26.73;17.27;;;17.90;30.40;;;;;;5116835;27;20452;-86
2022/03/20 11:33:38;;;;;;;28.17;17.00;;;18.00;29.90;;;;;;5099824;27;20458;-84
2022/03/20 11:36:05;;;;;;;24.97;16.60;;;18.30;29.90;;;;;;5133686;27;20472;-85
2022/03/20 11:38:35;;;;;;;29.07;17.30;;;18.20;29.90;;;;;;5115289;27;21045;-82
2022/03/20 11:41:10;;;;;;;28.27;16.40;;;18.50;29.20;;;;;;5104862;27;20469;-85
2022/03/20 11:43:38;;;;;;;26.23;16.70;;;18.50;29.50;;;;;;5132625;27;20437;-84
2022/03/20 11:46:27;;;;;;;27.80;16.27;;;18.90;29.00;;;;;;5132062;27;20477;-85
2022/03/20 11:49:21;;;;;;;28.03;16.13;;;18.80;29.80;;;;;;5133362;27;21162;-85
2022/03/20 11:51:54;;;;;;;28.80;18.63;;;19.10;29.80;;;;;;5097686;27;21157;-84
2022/03/20 11:54:30;;;;;;;22.10;16.50;;;19.30;28.50;;;;;;5133769;27;20551;-85
2022/03/20 11:57:00;;;;;;;26.00;17.10;;;19.40;28.30;;;;;;5113287;27;20496;-85
2022/03/20 11:59:46;;;;;;;31.53;17.97;;;19.40;28.70;;;;;;5133965;27;20494;-85
2022/03/20 12:02:14;;;;;;;29.30;16.93;;;19.70;29.10;;;;;;5132527;27;20450;-84
2022/03/20 12:04:52;;;;;;;36.23;21.13;;;19.90;28.80;;;;;;5113193;27;21049;-86
2022/03/20 12:07:26;;;;;;;26.77;16.37;;;19.40;28.50;;;;;;5080785;27;20486;-85
2022/03/20 12:10:08;;;;;;;27.17;16.10;;;19.80;29.40;;;;;;5131246;27;20438;-83
2022/03/20 12:12:59;;;;;;;22.57;16.23;;;20.10;27.80;;;;;;5129899;27;20457;-82
2022/03/20 12:15:29;;;;;;;27.70;15.87;;;20.30;28.80;;;;;;5134759;27;20468;-86
2022/03/20 12:18:00;;;;;;;28.67;18.10;;;20.10;28.60;;;;;;5114999;27;20533;-85
2022/03/20 12:20:59;;;;;;;28.07;18.20;;;20.10;27.90;;;;;;5129940;27;20497;-85
2022/03/20 12:23:51;;;;;;;28.47;17.53;;;20.10;27.90;;;;;;5133187;27;20528;-86
2022/03/20 12:26:30;;;;;;;24.37;16.07;;;20.10;28.30;;;;;;5091449;27;20483;-85
2022/03/20 12:29:31;;;;;;;31.20;17.43;;;20.20;28.00;;;;;;5131245;27;20445;-84
2022/03/20 12:32:01;;;;;;;28.67;16.90;;;20.50;28.10;;;;;;5112993;27;20458;-85
2022/03/20 12:34:28;;;;;;;26.70;16.70;;;20.50;28.20;;;;;;5133834;27;21005;-85
2022/03/20 12:36:55;;;;;;;29.70;16.30;;;20.50;27.40;;;;;;5102499;27;20473;-84
2022/03/20 12:39:47;;;;;;;31.70;17.63;;;20.70;28.30;;;;;;5105751;27;21276;-86
2022/03/20 12:42:18;;;;;;;31.77;18.27;;;20.50;27.80;;;;;;5134640;27;20510;-85
2022/03/20 12:44:48;;;;;;;25.33;16.27;;;20.50;27.80;;;;;;5132650;27;20453;-82
2022/03/20 12:47:17;;;;;;;29.97;16.40;;;20.50;27.60;;;;;;5116996;27;21054;-84
2022/03/20 12:49:47;;;;;;;25.73;16.80;;;20.30;28.30;;;;;;5133801;27;20485;-85
2022/03/20 12:52:17;;;;;;;26.70;16.57;;;20.80;27.70;;;;;;5100791;27;20572;-85
2022/03/20 12:54:54;;;;;;;27.87;16.47;;;21.00;27.80;;;;;;5116768;27;20453;-85
2022/03/20 12:57:36;;;;;;;29.87;16.77;;;21.40;27.50;;;;;;5134605;27;20476;-85
2022/03/20 13:00:13;;;;;;;26.33;16.33;;;21.00;28.40;;;;;;5114377;27;20430;-84
2022/03/20 13:03:01;;;;;;;24.30;15.10;;;21.10;27.90;;;;;;5131342;27;20444;-84
2022/03/20 13:05:29;;;;;;;27.23;16.53;;;21.10;27.30;;;;;;5114520;27;20469;-84
2022/03/20 13:07:57;;;;;;;26.40;14.70;;;21.00;27.70;;;;;;5133161;27;20457;-84
2022/03/20 13:10:25;;;;;;;26.17;15.27;;;21.00;27.70;;;;;;5133229;27;20461;-83
2022/03/20 13:12:53;;;;;;;27.70;16.23;;;20.80;27.10;;;;;;5133600;27;20442;-84
2022/03/20 13:15:26;;;;;;;26.50;16.13;;;20.70;27.90;;;;;;5118239;27;20466;-84
2022/03/20 13:17:54;;;;;;;26.97;16.53;;;20.80;27.60;;;;;;5134825;27;20866;-84